sensor_id;sensor_type;location;lat;lon;timestamp;temperature;humidity
44695;DHT22;32845;59.422;17.930;2023-02-11T00:00:25;2.00;99.90
44695;DHT22;32845;59.422;17.930;2023-02-11T00:04:55;2.00;99.90
44695;DHT22;32845;59.422;17.930;2023-02-11T00:09:26;2.00;99.90
44695;DHT22;32845;59.422;17.930;2023-02-11T00:13:59;2.00;99.90
44695;DHT22;32845;59.422;17.930;2023-02-11T00:18:30;2.10;99.90
44695;DHT22;32845;59.422;17.930;2023-02-11T00:23:00;2.10;99.90
44695;DHT22;32845;59.422;17.930;2023-02-11T00:27:31;2.10;99.90
44695;DHT22;32845;59.422;17.930;2023-02-11T00:32:02;2.10;99.90
44695;DHT22;32845;59.422;17.930;2023-02-11T00:36:35;2.10;99.90
44695;DHT22;32845;59.422;17.930;2023-02-11T00:41:05;2.10;99.90
44695;DHT22;32845;59.422;17.930;2023-02-11T00:45:36;2.10;99.90
44695;DHT22;32845;59.422;17.930;2023-02-11T00:50:07;2.10;99.90
44695;DHT22;32845;59.422;17.930;2023-02-11T00:54:38;2.10;99.90
44695;DHT22;32845;59.422;17.930;2023-02-11T00:59:09;2.00;99.90
44695;DHT22;32845;59.422;17.930;2023-02-11T01:03:40;2.00;99.90
44695;DHT22;32845;59.422;17.930;2023-02-11T01:08:11;2.00;99.90
44695;DHT22;32845;59.422;17.930;2023-02-11T01:12:42;2.00;99.90
44695;DHT22;32845;59.422;17.930;2023-02-11T01:17:12;2.00;99.90
44695;DHT22;32845;59.422;17.930;2023-02-11T01:21:43;2.10;99.90
44695;DHT22;32845;59.422;17.930;2023-02-11T01:26:14;2.10;99.90
44695;DHT22;32845;59.422;17.930;2023-02-11T01:30:44;2.10;99.90
44695;DHT22;32845;59.422;17.930;2023-02-11T01:35:15;2.10;99.90
44695;DHT22;32845;59.422;17.930;2023-02-11T01:39:46;2.10;99.90
44695;DHT22;32845;59.422;17.930;2023-02-11T01:44:25;2.10;99.90
44695;DHT22;32845;59.422;17.930;2023-02-11T01:49:03;2.10;99.90
44695;DHT22;32845;59.422;17.930;2023-02-11T01:53:36;2.00;99.90
44695;DHT22;32845;59.422;17.930;2023-02-11T01:58:27;2.10;99.90
44695;DHT22;32845;59.422;17.930;2023-02-11T02:03:08;2.10;99.90
44695;DHT22;32845;59.422;17.930;2023-02-11T02:12:22;2.10;99.90
44695;DHT22;32845;59.422;17.930;2023-02-11T02:16:52;2.10;99.90
44695;DHT22;32845;59.422;17.930;2023-02-11T02:40:52;2.20;99.90
44695;DHT22;32845;59.422;17.930;2023-02-11T02:45:24;2.30;99.90
44695;DHT22;32845;59.422;17.930;2023-02-11T02:49:54;2.30;99.90
44695;DHT22;32845;59.422;17.930;2023-02-11T02:55:37;2.40;99.90
44695;DHT22;32845;59.422;17.930;2023-02-11T03:09:30;2.60;99.90
44695;DHT22;32845;59.422;17.930;2023-02-11T03:14:04;2.70;99.90
44695;DHT22;32845;59.422;17.930;2023-02-11T03:18:38;2.70;99.90
44695;DHT22;32845;59.422;17.930;2023-02-11T03:23:35;2.70;99.90
44695;DHT22;32845;59.422;17.930;2023-02-11T03:28:17;2.80;99.90
44695;DHT22;32845;59.422;17.930;2023-02-11T03:33:09;2.80;99.90
44695;DHT22;32845;59.422;17.930;2023-02-11T03:37:52;2.70;99.90
44695;DHT22;32845;59.422;17.930;2023-02-11T03:42:29;2.60;99.90
44695;DHT22;32845;59.422;17.930;2023-02-11T03:47:04;2.50;99.90
44695;DHT22;32845;59.422;17.930;2023-02-11T03:51:37;2.40;99.90
44695;DHT22;32845;59.422;17.930;2023-02-11T03:56:12;2.30;99.90
44695;DHT22;32845;59.422;17.930;2023-02-11T04:00:44;2.20;99.90
44695;DHT22;32845;59.422;17.930;2023-02-11T04:05:15;2.20;99.90
44695;DHT22;32845;59.422;17.930;2023-02-11T04:09:46;2.10;99.90
44695;DHT22;32845;59.422;17.930;2023-02-11T04:14:17;2.10;99.90
44695;DHT22;32845;59.422;17.930;2023-02-11T04:18:47;2.00;99.90
44695;DHT22;32845;59.422;17.930;2023-02-11T04:23:18;2.00;99.90
44695;DHT22;32845;59.422;17.930;2023-02-11T04:27:49;1.90;99.90
44695;DHT22;32845;59.422;17.930;2023-02-11T04:32:20;1.80;99.90
44695;DHT22;32845;59.422;17.930;2023-02-11T04:36:50;1.80;99.90
44695;DHT22;32845;59.422;17.930;2023-02-11T04:41:21;1.70;99.90
44695;DHT22;32845;59.422;17.930;2023-02-11T04:45:56;1.70;99.90
44695;DHT22;32845;59.422;17.930;2023-02-11T04:50:27;1.70;99.90
44695;DHT22;32845;59.422;17.930;2023-02-11T04:54:57;1.60;99.90
44695;DHT22;32845;59.422;17.930;2023-02-11T04:59:28;1.60;99.90
44695;DHT22;32845;59.422;17.930;2023-02-11T05:03:59;1.60;99.90
44695;DHT22;32845;59.422;17.930;2023-02-11T05:08:30;1.60;99.90
44695;DHT22;32845;59.422;17.930;2023-02-11T05:13:01;1.50;99.90
44695;DHT22;32845;59.422;17.930;2023-02-11T05:17:32;1.40;99.90
44695;DHT22;32845;59.422;17.930;2023-02-11T05:22:02;1.40;99.90
44695;DHT22;32845;59.422;17.930;2023-02-11T05:26:33;1.30;99.90
44695;DHT22;32845;59.422;17.930;2023-02-11T05:31:05;1.20;99.90
44695;DHT22;32845;59.422;17.930;2023-02-11T05:35:36;1.10;99.90
44695;DHT22;32845;59.422;17.930;2023-02-11T05:40:07;1.10;99.90
44695;DHT22;32845;59.422;17.930;2023-02-11T05:44:37;1.00;99.90
44695;DHT22;32845;59.422;17.930;2023-02-11T05:49:08;1.00;99.90
44695;DHT22;32845;59.422;17.930;2023-02-11T05:53:39;0.90;99.90
44695;DHT22;32845;59.422;17.930;2023-02-11T05:58:10;0.90;99.90
44695;DHT22;32845;59.422;17.930;2023-02-11T06:02:40;0.80;99.90
44695;DHT22;32845;59.422;17.930;2023-02-11T06:07:11;0.70;99.90
44695;DHT22;32845;59.422;17.930;2023-02-11T06:11:42;0.70;99.90
44695;DHT22;32845;59.422;17.930;2023-02-11T06:16:12;0.70;99.90
44695;DHT22;32845;59.422;17.930;2023-02-11T06:20:43;0.60;99.90
44695;DHT22;32845;59.422;17.930;2023-02-11T06:25:14;0.60;99.90
44695;DHT22;32845;59.422;17.930;2023-02-11T06:29:45;0.60;99.90
44695;DHT22;32845;59.422;17.930;2023-02-11T06:34:16;0.50;99.90
44695;DHT22;32845;59.422;17.930;2023-02-11T06:38:47;0.40;99.90
44695;DHT22;32845;59.422;17.930;2023-02-11T06:43:18;0.30;99.90
44695;DHT22;32845;59.422;17.930;2023-02-11T06:47:50;0.20;99.90
44695;DHT22;32845;59.422;17.930;2023-02-11T06:52:22;0.20;99.90
44695;DHT22;32845;59.422;17.930;2023-02-11T06:56:52;0.10;99.90
44695;DHT22;32845;59.422;17.930;2023-02-11T07:01:24;0.10;99.90
44695;DHT22;32845;59.422;17.930;2023-02-11T07:05:55;0.00;99.90
44695;DHT22;32845;59.422;17.930;2023-02-11T07:10:26;0.10;99.90
44695;DHT22;32845;59.422;17.930;2023-02-11T07:14:56;0.10;99.90
44695;DHT22;32845;59.422;17.930;2023-02-11T07:19:27;0.00;99.90
44695;DHT22;32845;59.422;17.930;2023-02-11T07:23:58;0.00;99.90
44695;DHT22;32845;59.422;17.930;2023-02-11T07:28:28;0.00;99.90
44695;DHT22;32845;59.422;17.930;2023-02-11T07:32:59;0.00;99.90
44695;DHT22;32845;59.422;17.930;2023-02-11T07:37:32;0.00;99.90
44695;DHT22;32845;59.422;17.930;2023-02-11T07:42:03;0.00;99.90
44695;DHT22;32845;59.422;17.930;2023-02-11T07:46:34;0.00;99.90
44695;DHT22;32845;59.422;17.930;2023-02-11T07:51:17;0.00;99.90
44695;DHT22;32845;59.422;17.930;2023-02-11T07:55:48;0.00;99.90
44695;DHT22;32845;59.422;17.930;2023-02-11T08:00:19;0.10;99.90
44695;DHT22;32845;59.422;17.930;2023-02-11T08:04:49;0.10;99.90
44695;DHT22;32845;59.422;17.930;2023-02-11T08:09:20;0.10;99.90
44695;DHT22;32845;59.422;17.930;2023-02-11T08:13:51;0.20;99.90
44695;DHT22;32845;59.422;17.930;2023-02-11T08:18:23;0.20;99.90
44695;DHT22;32845;59.422;17.930;2023-02-11T08:22:53;0.20;99.90
44695;DHT22;32845;59.422;17.930;2023-02-11T08:27:24;0.30;99.90
44695;DHT22;32845;59.422;17.930;2023-02-11T08:31:56;0.30;99.90
44695;DHT22;32845;59.422;17.930;2023-02-11T08:36:31;0.30;99.90
44695;DHT22;32845;59.422;17.930;2023-02-11T08:41:02;0.20;99.90
44695;DHT22;32845;59.422;17.930;2023-02-11T08:45:33;0.20;99.90
44695;DHT22;32845;59.422;17.930;2023-02-11T08:50:04;0.20;99.90
44695;DHT22;32845;59.422;17.930;2023-02-11T08:54:36;0.20;99.90
44695;DHT22;32845;59.422;17.930;2023-02-11T08:59:07;0.20;99.90
44695;DHT22;32845;59.422;17.930;2023-02-11T09:03:40;0.30;99.90
44695;DHT22;32845;59.422;17.930;2023-02-11T09:08:12;0.30;99.90
44695;DHT22;32845;59.422;17.930;2023-02-11T09:12:43;0.30;99.90
44695;DHT22;32845;59.422;17.930;2023-02-11T09:17:13;0.40;99.90
44695;DHT22;32845;59.422;17.930;2023-02-11T09:21:44;0.40;99.90
44695;DHT22;32845;59.422;17.930;2023-02-11T09:26:23;0.40;99.90
44695;DHT22;32845;59.422;17.930;2023-02-11T09:30:54;0.40;99.90
44695;DHT22;32845;59.422;17.930;2023-02-11T09:35:25;0.40;99.90
44695;DHT22;32845;59.422;17.930;2023-02-11T09:39:55;0.40;99.90
44695;DHT22;32845;59.422;17.930;2023-02-11T09:44:28;0.40;99.90
44695;DHT22;32845;59.422;17.930;2023-02-11T09:49:02;0.40;99.90
44695;DHT22;32845;59.422;17.930;2023-02-11T09:53:38;0.40;99.90
44695;DHT22;32845;59.422;17.930;2023-02-11T09:58:13;0.40;99.90
44695;DHT22;32845;59.422;17.930;2023-02-11T10:12:43;0.30;99.90
44695;DHT22;32845;59.422;17.930;2023-02-11T10:22:34;0.30;99.90
44695;DHT22;32845;59.422;17.930;2023-02-11T10:27:19;0.30;99.90
44695;DHT22;32845;59.422;17.930;2023-02-11T10:31:50;0.20;99.90
44695;DHT22;32845;59.422;17.930;2023-02-11T10:36:27;0.30;99.90
44695;DHT22;32845;59.422;17.930;2023-02-11T10:40:58;0.30;99.90
44695;DHT22;32845;59.422;17.930;2023-02-11T10:45:44;0.20;99.90
44695;DHT22;32845;59.422;17.930;2023-02-11T10:50:25;0.20;99.90
44695;DHT22;32845;59.422;17.930;2023-02-11T10:55:08;0.20;99.90
44695;DHT22;32845;59.422;17.930;2023-02-11T10:59:43;0.20;99.90
44695;DHT22;32845;59.422;17.930;2023-02-11T11:09:02;0.20;99.90
44695;DHT22;32845;59.422;17.930;2023-02-11T11:13:35;0.20;99.90
44695;DHT22;32845;59.422;17.930;2023-02-11T11:18:13;0.20;99.90
44695;DHT22;32845;59.422;17.930;2023-02-11T11:22:44;0.20;99.90
44695;DHT22;32845;59.422;17.930;2023-02-11T11:27:22;0.20;99.90
44695;DHT22;32845;59.422;17.930;2023-02-11T11:31:58;0.20;99.90
44695;DHT22;32845;59.422;17.930;2023-02-11T11:36:37;0.20;99.90
44695;DHT22;32845;59.422;17.930;2023-02-11T11:41:30;0.20;99.90
44695;DHT22;32845;59.422;17.930;2023-02-11T11:46:00;0.20;99.90
44695;DHT22;32845;59.422;17.930;2023-02-11T11:59:37;0.30;99.90
44695;DHT22;32845;59.422;17.930;2023-02-11T12:09:26;0.50;99.90
44695;DHT22;32845;59.422;17.930;2023-02-11T12:28:17;4.40;99.90
44695;DHT22;32845;59.422;17.930;2023-02-11T12:57:31;3.60;99.90
44695;DHT22;32845;59.422;17.930;2023-02-11T13:02:27;3.00;99.90
44695;DHT22;32845;59.422;17.930;2023-02-11T13:07:02;2.70;99.90
44695;DHT22;32845;59.422;17.930;2023-02-11T13:11:40;2.30;99.90
44695;DHT22;32845;59.422;17.930;2023-02-11T13:16:51;2.10;99.90
44695;DHT22;32845;59.422;17.930;2023-02-11T13:25:52;1.70;99.90
44695;DHT22;32845;59.422;17.930;2023-02-11T13:30:28;1.60;99.90
44695;DHT22;32845;59.422;17.930;2023-02-11T13:35:15;1.60;99.90
44695;DHT22;32845;59.422;17.930;2023-02-11T13:40:20;2.10;99.90
44695;DHT22;32845;59.422;17.930;2023-02-11T13:44:51;3.80;99.90
44695;DHT22;32845;59.422;17.930;2023-02-11T13:49:27;4.80;99.90
44695;DHT22;32845;59.422;17.930;2023-02-11T13:54:00;5.10;99.90
44695;DHT22;32845;59.422;17.930;2023-02-11T14:13:24;2.80;99.90
44695;DHT22;32845;59.422;17.930;2023-02-11T14:17:56;2.40;99.90
44695;DHT22;32845;59.422;17.930;2023-02-11T14:22:39;2.00;99.90
44695;DHT22;32845;59.422;17.930;2023-02-11T14:27:45;1.70;99.90
44695;DHT22;32845;59.422;17.930;2023-02-11T14:41:48;1.10;99.90
44695;DHT22;32845;59.422;17.930;2023-02-11T14:46:21;1.00;99.90
44695;DHT22;32845;59.422;17.930;2023-02-11T14:51:12;0.80;99.90
44695;DHT22;32845;59.422;17.930;2023-02-11T14:55:50;0.70;99.90
44695;DHT22;32845;59.422;17.930;2023-02-11T15:00:22;0.60;99.90
44695;DHT22;32845;59.422;17.930;2023-02-11T15:04:52;0.50;99.90
44695;DHT22;32845;59.422;17.930;2023-02-11T15:09:39;0.50;99.90
44695;DHT22;32845;59.422;17.930;2023-02-11T15:14:22;0.30;99.90
44695;DHT22;32845;59.422;17.930;2023-02-11T15:18:57;0.20;99.90
44695;DHT22;32845;59.422;17.930;2023-02-11T15:23:30;0.10;99.90
44695;DHT22;32845;59.422;17.930;2023-02-11T15:28:14;-0.10;99.90
44695;DHT22;32845;59.422;17.930;2023-02-11T15:32:56;-0.30;99.90
44695;DHT22;32845;59.422;17.930;2023-02-11T15:37:29;-0.60;99.90
44695;DHT22;32845;59.422;17.930;2023-02-11T15:42:21;-0.60;99.90
44695;DHT22;32845;59.422;17.930;2023-02-11T15:46:52;-0.60;99.90
44695;DHT22;32845;59.422;17.930;2023-02-11T15:51:29;-0.60;99.90
44695;DHT22;32845;59.422;17.930;2023-02-11T16:00:50;-0.50;99.90
44695;DHT22;32845;59.422;17.930;2023-02-11T16:10:02;-0.60;99.90
44695;DHT22;32845;59.422;17.930;2023-02-11T16:14:34;-0.60;99.90
44695;DHT22;32845;59.422;17.930;2023-02-11T16:19:19;-0.70;99.90
44695;DHT22;32845;59.422;17.930;2023-02-11T16:23:54;-1.00;99.90
44695;DHT22;32845;59.422;17.930;2023-02-11T16:28:25;-1.20;99.90
44695;DHT22;32845;59.422;17.930;2023-02-11T16:32:56;-1.20;99.90
44695;DHT22;32845;59.422;17.930;2023-02-11T16:37:27;-1.20;99.90
44695;DHT22;32845;59.422;17.930;2023-02-11T16:41:58;-1.20;99.90
44695;DHT22;32845;59.422;17.930;2023-02-11T16:46:30;-1.20;99.90
44695;DHT22;32845;59.422;17.930;2023-02-11T16:51:01;-1.30;99.90
44695;DHT22;32845;59.422;17.930;2023-02-11T16:55:33;-1.20;99.90
44695;DHT22;32845;59.422;17.930;2023-02-11T17:00:05;-1.20;99.90
44695;DHT22;32845;59.422;17.930;2023-02-11T17:04:36;-1.20;99.90
44695;DHT22;32845;59.422;17.930;2023-02-11T17:09:11;-1.20;99.90
44695;DHT22;32845;59.422;17.930;2023-02-11T17:13:45;-1.20;99.90
44695;DHT22;32845;59.422;17.930;2023-02-11T17:18:16;-1.20;99.90
44695;DHT22;32845;59.422;17.930;2023-02-11T17:22:47;-1.10;99.90
44695;DHT22;32845;59.422;17.930;2023-02-11T17:27:18;-1.10;99.90
44695;DHT22;32845;59.422;17.930;2023-02-11T17:31:49;-1.10;99.90
44695;DHT22;32845;59.422;17.930;2023-02-11T17:36:21;-1.20;99.90
44695;DHT22;32845;59.422;17.930;2023-02-11T17:40:58;-1.20;99.90
44695;DHT22;32845;59.422;17.930;2023-02-11T17:45:29;-1.20;99.90
44695;DHT22;32845;59.422;17.930;2023-02-11T17:50:00;-1.20;99.90
44695;DHT22;32845;59.422;17.930;2023-02-11T17:54:32;-1.10;99.90
44695;DHT22;32845;59.422;17.930;2023-02-11T17:59:04;-1.20;99.90
44695;DHT22;32845;59.422;17.930;2023-02-11T18:03:35;-1.10;99.90
44695;DHT22;32845;59.422;17.930;2023-02-11T18:08:06;-1.20;99.90
44695;DHT22;32845;59.422;17.930;2023-02-11T18:12:37;-1.10;99.90
44695;DHT22;32845;59.422;17.930;2023-02-11T18:17:08;-1.20;99.90
44695;DHT22;32845;59.422;17.930;2023-02-11T18:21:38;-1.20;99.90
44695;DHT22;32845;59.422;17.930;2023-02-11T18:26:11;-1.20;99.90
44695;DHT22;32845;59.422;17.930;2023-02-11T18:30:42;-1.20;99.90
44695;DHT22;32845;59.422;17.930;2023-02-11T18:35:13;-1.20;99.90
44695;DHT22;32845;59.422;17.930;2023-02-11T18:39:44;-1.20;99.90
44695;DHT22;32845;59.422;17.930;2023-02-11T18:44:15;-1.30;99.90
44695;DHT22;32845;59.422;17.930;2023-02-11T18:48:51;-1.40;99.90
44695;DHT22;32845;59.422;17.930;2023-02-11T18:53:23;-1.70;99.90
44695;DHT22;32845;59.422;17.930;2023-02-11T18:57:54;-2.00;99.90
44695;DHT22;32845;59.422;17.930;2023-02-11T19:02:25;-2.10;99.90
44695;DHT22;32845;59.422;17.930;2023-02-11T19:06:56;-2.30;99.90
44695;DHT22;32845;59.422;17.930;2023-02-11T19:11:30;-2.40;99.90
44695;DHT22;32845;59.422;17.930;2023-02-11T19:16:16;-2.50;99.90
44695;DHT22;32845;59.422;17.930;2023-02-11T19:20:49;-2.70;99.90
44695;DHT22;32845;59.422;17.930;2023-02-11T19:25:19;-2.80;99.90
44695;DHT22;32845;59.422;17.930;2023-02-11T19:29:50;-2.80;99.90
44695;DHT22;32845;59.422;17.930;2023-02-11T19:34:21;-2.70;99.90
44695;DHT22;32845;59.422;17.930;2023-02-11T19:38:52;-2.80;99.90
44695;DHT22;32845;59.422;17.930;2023-02-11T19:43:23;-2.80;99.90
44695;DHT22;32845;59.422;17.930;2023-02-11T19:47:55;-2.80;99.90
44695;DHT22;32845;59.422;17.930;2023-02-11T19:52:26;-2.70;99.90
44695;DHT22;32845;59.422;17.930;2023-02-11T19:56:57;-2.60;99.90
44695;DHT22;32845;59.422;17.930;2023-02-11T20:01:28;-2.60;99.90
44695;DHT22;32845;59.422;17.930;2023-02-11T20:05:59;-2.60;99.90
44695;DHT22;32845;59.422;17.930;2023-02-11T20:10:29;-2.60;99.90
44695;DHT22;32845;59.422;17.930;2023-02-11T20:15:00;-2.70;99.90
44695;DHT22;32845;59.422;17.930;2023-02-11T20:19:31;-2.80;99.90
44695;DHT22;32845;59.422;17.930;2023-02-11T20:24:02;-2.80;99.90
44695;DHT22;32845;59.422;17.930;2023-02-11T20:28:32;-2.90;99.90
44695;DHT22;32845;59.422;17.930;2023-02-11T20:33:03;-2.90;99.90
44695;DHT22;32845;59.422;17.930;2023-02-11T20:37:34;-2.90;99.90
44695;DHT22;32845;59.422;17.930;2023-02-11T20:42:07;-2.90;99.90
44695;DHT22;32845;59.422;17.930;2023-02-11T20:46:43;-2.90;99.90
44695;DHT22;32845;59.422;17.930;2023-02-11T20:51:18;-3.00;99.90
44695;DHT22;32845;59.422;17.930;2023-02-11T20:55:49;-3.10;99.90
44695;DHT22;32845;59.422;17.930;2023-02-11T21:00:20;-3.10;99.90
44695;DHT22;32845;59.422;17.930;2023-02-11T21:04:50;-3.10;99.90
44695;DHT22;32845;59.422;17.930;2023-02-11T21:09:23;-3.20;99.90
44695;DHT22;32845;59.422;17.930;2023-02-11T21:13:54;-3.20;99.90
44695;DHT22;32845;59.422;17.930;2023-02-11T21:18:25;-3.30;99.90
44695;DHT22;32845;59.422;17.930;2023-02-11T21:22:55;-3.40;99.90
44695;DHT22;32845;59.422;17.930;2023-02-11T21:27:26;-3.40;99.90
44695;DHT22;32845;59.422;17.930;2023-02-11T21:32:02;-3.50;99.90
44695;DHT22;32845;59.422;17.930;2023-02-11T21:36:33;-3.50;99.90
44695;DHT22;32845;59.422;17.930;2023-02-11T21:41:04;-3.50;99.90
44695;DHT22;32845;59.422;17.930;2023-02-11T21:45:44;-3.50;99.90
44695;DHT22;32845;59.422;17.930;2023-02-11T21:50:15;-3.50;99.90
44695;DHT22;32845;59.422;17.930;2023-02-11T21:54:48;-3.40;99.90
44695;DHT22;32845;59.422;17.930;2023-02-11T21:59:19;-3.30;99.90
44695;DHT22;32845;59.422;17.930;2023-02-11T22:03:50;-3.20;99.90
44695;DHT22;32845;59.422;17.930;2023-02-11T22:08:21;-3.30;99.90
44695;DHT22;32845;59.422;17.930;2023-02-11T22:12:52;-3.30;99.90
44695;DHT22;32845;59.422;17.930;2023-02-11T22:17:22;-3.30;99.90
44695;DHT22;32845;59.422;17.930;2023-02-11T22:21:53;-3.40;99.90
44695;DHT22;32845;59.422;17.930;2023-02-11T22:26:26;-3.40;99.90
44695;DHT22;32845;59.422;17.930;2023-02-11T22:30:57;-3.50;99.90
44695;DHT22;32845;59.422;17.930;2023-02-11T22:35:27;-3.50;99.90
44695;DHT22;32845;59.422;17.930;2023-02-11T22:39:58;-3.40;99.90
44695;DHT22;32845;59.422;17.930;2023-02-11T22:44:29;-3.40;99.90
44695;DHT22;32845;59.422;17.930;2023-02-11T22:49:00;-3.50;99.90
44695;DHT22;32845;59.422;17.930;2023-02-11T22:53:30;-3.60;99.90
44695;DHT22;32845;59.422;17.930;2023-02-11T22:58:01;-3.80;99.90
44695;DHT22;32845;59.422;17.930;2023-02-11T23:02:32;-3.90;99.90
44695;DHT22;32845;59.422;17.930;2023-02-11T23:07:03;-4.00;99.90
44695;DHT22;32845;59.422;17.930;2023-02-11T23:11:33;-4.10;99.90
44695;DHT22;32845;59.422;17.930;2023-02-11T23:16:06;-4.10;99.90
44695;DHT22;32845;59.422;17.930;2023-02-11T23:20:40;-4.20;99.90
44695;DHT22;32845;59.422;17.930;2023-02-11T23:25:11;-4.20;99.90
44695;DHT22;32845;59.422;17.930;2023-02-11T23:29:42;-4.20;99.90
44695;DHT22;32845;59.422;17.930;2023-02-11T23:34:13;-4.10;99.90
44695;DHT22;32845;59.422;17.930;2023-02-11T23:38:50;-4.00;99.90
44695;DHT22;32845;59.422;17.930;2023-02-11T23:43:21;-4.00;99.90
44695;DHT22;32845;59.422;17.930;2023-02-11T23:47:51;-4.00;99.90
44695;DHT22;32845;59.422;17.930;2023-02-11T23:52:22;-4.00;99.90
44695;DHT22;32845;59.422;17.930;2023-02-11T23:56:53;-4.00;99.90
